createdAt,value
2018-09-02T00:00:40.226Z,7.33
2018-09-02T00:03:07.464Z,9.55
2018-09-02T00:05:34.748Z,8.73
2018-09-02T00:08:02.083Z,7.45
2018-09-02T00:10:30.229Z,8.35
2018-09-02T00:12:57.671Z,8.10
2018-09-02T00:15:24.937Z,7.12
2018-09-02T00:17:52.388Z,10.00
2018-09-02T00:20:20.097Z,8.05
2018-09-02T00:22:47.339Z,13.40
2018-09-02T00:25:14.595Z,8.10
2018-09-02T00:27:42.044Z,9.10
2018-09-02T00:30:09.568Z,10.30
2018-09-02T00:32:36.972Z,8.98
2018-09-02T00:35:04.313Z,7.87
2018-09-02T00:37:31.918Z,7.90
2018-09-02T00:39:59.159Z,7.90
2018-09-02T00:42:26.431Z,9.25
2018-09-02T00:44:53.935Z,8.65
2018-09-02T00:47:21.239Z,8.80
2018-09-02T00:49:48.523Z,9.25
2018-09-02T00:52:15.915Z,7.20
2018-09-02T00:54:43.160Z,9.18
2018-09-02T00:57:10.463Z,9.08
2018-09-02T00:59:37.712Z,10.75
2018-09-02T01:02:05.190Z,8.60
2018-09-02T01:04:33.033Z,8.15
2018-09-02T01:07:00.858Z,8.20
2018-09-02T01:09:28.116Z,7.53
2018-09-02T01:11:55.399Z,7.97
2018-09-02T01:14:22.658Z,9.08
2018-09-02T01:16:49.945Z,9.63
2018-09-02T01:19:17.211Z,9.08
2018-09-02T01:21:44.456Z,11.10
2018-09-02T01:24:11.736Z,8.55
2018-09-02T01:26:39.054Z,10.08
2018-09-02T01:29:06.331Z,10.45
2018-09-02T01:31:33.615Z,10.32
2018-09-02T01:34:01.151Z,10.15
2018-09-02T01:36:28.399Z,9.30
2018-09-02T01:38:55.723Z,12.15
2018-09-02T01:41:22.986Z,9.20
2018-09-02T01:43:50.200Z,9.48
2018-09-02T01:46:17.424Z,9.28
2018-09-02T01:48:44.679Z,9.38
2018-09-02T01:51:11.908Z,10.03
2018-09-02T01:53:39.171Z,14.63
2018-09-02T01:56:06.443Z,9.65
2018-09-02T01:58:33.712Z,8.55
2018-09-02T02:01:00.944Z,11.65
2018-09-02T02:03:28.183Z,10.90
2018-09-02T02:05:55.434Z,10.10
2018-09-02T02:08:22.678Z,10.90
2018-09-02T02:10:49.912Z,9.93
2018-09-02T02:13:17.151Z,12.65
2018-09-02T02:15:44.387Z,12.15
2018-09-02T02:18:11.647Z,11.50
2018-09-02T02:20:38.998Z,8.40
2018-09-02T02:23:06.258Z,8.88
2018-09-02T02:25:33.483Z,9.93
2018-09-02T02:28:00.781Z,14.40
2018-09-02T02:30:28.002Z,7.72
2018-09-02T02:32:55.238Z,10.88
2018-09-02T02:35:22.527Z,7.80
2018-09-02T02:37:49.763Z,9.83
2018-09-02T02:40:17.035Z,10.18
2018-09-02T02:42:44.291Z,9.55
2018-09-02T02:45:11.631Z,7.62
2018-09-02T02:47:38.885Z,10.13
2018-09-02T02:50:06.401Z,9.83
2018-09-02T02:52:39.416Z,9.40
2018-09-02T02:55:07.024Z,7.83
2018-09-02T02:57:35.336Z,7.80
2018-09-02T03:00:02.591Z,10.98
2018-09-02T03:02:29.835Z,9.40
2018-09-02T03:04:57.067Z,8.05
2018-09-02T03:07:24.298Z,6.95
2018-09-02T03:09:51.580Z,9.45
2018-09-02T03:12:18.890Z,9.10
2018-09-02T03:14:46.188Z,8.45
2018-09-02T03:17:13.505Z,9.90
2018-09-02T03:19:40.818Z,6.95
2018-09-02T03:22:08.059Z,9.30
2018-09-02T03:24:35.299Z,7.50
2018-09-02T03:27:02.532Z,9.25
2018-09-02T03:29:29.796Z,7.83
2018-09-02T03:31:57.060Z,6.75
2018-09-02T03:34:24.337Z,7.28
2018-09-02T03:36:51.587Z,7.95
2018-09-02T03:39:18.898Z,11.78
2018-09-02T03:41:46.134Z,7.08
2018-09-02T03:44:13.419Z,8.78
2018-09-02T03:46:40.650Z,10.63
2018-09-02T03:49:07.887Z,10.98
2018-09-02T03:51:35.168Z,6.97
2018-09-02T03:54:02.420Z,8.53
2018-09-02T03:56:29.734Z,10.53
2018-09-02T03:58:57.019Z,10.90
2018-09-02T04:01:24.374Z,9.95
2018-09-02T04:03:51.667Z,10.10
2018-09-02T04:06:18.928Z,11.50
2018-09-02T04:08:46.209Z,8.88
2018-09-02T04:11:13.531Z,10.28
2018-09-02T04:13:40.697Z,10.58
2018-09-02T04:16:07.985Z,11.18
2018-09-02T04:18:35.231Z,12.05
2018-09-02T04:21:02.481Z,12.47
2018-09-02T04:23:29.735Z,10.80
2018-09-02T04:25:56.991Z,12.82
2018-09-02T04:28:24.208Z,12.88
2018-09-02T04:30:51.441Z,12.73
2018-09-02T04:33:18.712Z,15.60
2018-09-02T04:35:49.328Z,12.65
2018-09-02T04:38:16.568Z,13.22
2018-09-02T04:40:43.895Z,14.30
2018-09-02T04:43:11.107Z,17.37
2018-09-02T04:45:38.400Z,14.53
2018-09-02T04:48:05.594Z,18.67
2018-09-02T04:50:32.837Z,15.90
2018-09-02T04:53:00.095Z,18.10
2018-09-02T04:55:27.444Z,14.93
2018-09-02T04:57:54.712Z,15.80
2018-09-02T05:00:21.971Z,15.60
2018-09-02T05:02:49.214Z,16.48
2018-09-02T05:05:16.532Z,19.65
2018-09-02T05:07:43.781Z,19.10
2018-09-02T05:10:11.038Z,21.02
2018-09-02T05:12:38.402Z,21.20
2018-09-02T05:15:05.804Z,19.20
2018-09-02T05:17:33.628Z,22.52
2018-09-02T05:20:00.892Z,19.40
2018-09-02T05:22:28.659Z,22.17
2018-09-02T05:24:55.913Z,24.57
2018-09-02T05:27:23.192Z,21.25
2018-09-02T05:29:51.174Z,21.12
2018-09-02T05:32:18.823Z,22.32
2018-09-02T05:34:46.051Z,20.32
2018-09-02T05:37:13.347Z,24.55
2018-09-02T05:39:40.578Z,22.17
2018-09-02T05:42:10.477Z,23.62
2018-09-02T05:44:37.811Z,19.60
2018-09-02T05:47:06.526Z,22.82
2018-09-02T05:49:33.808Z,19.48
2018-09-02T05:52:01.297Z,21.65
2018-09-02T05:54:28.660Z,17.37
2018-09-02T05:56:55.899Z,22.50
2018-09-02T05:59:23.271Z,19.57
2018-09-02T06:01:50.539Z,18.80
2018-09-02T06:04:17.795Z,18.85
2018-09-02T06:06:45.028Z,16.67
2018-09-02T06:09:12.307Z,18.15
2018-09-02T06:11:39.557Z,21.85
2018-09-02T06:14:06.867Z,20.60
2018-09-02T06:16:45.658Z,22.13
2018-09-02T06:19:26.525Z,19.75
2018-09-02T06:21:53.761Z,20.65
2018-09-02T06:24:21.581Z,18.80
2018-09-02T06:26:48.838Z,17.50
2018-09-02T06:29:16.661Z,19.80
2018-09-02T06:31:46.021Z,21.33
2018-09-02T06:34:13.412Z,18.35
2018-09-02T06:36:40.685Z,18.73
2018-09-02T06:39:10.803Z,18.52
2018-09-02T06:41:38.095Z,18.40
2018-09-02T06:44:05.363Z,20.27
2018-09-02T06:46:45.037Z,16.48
2018-09-02T06:49:12.271Z,16.85
2018-09-02T06:51:39.524Z,14.83
2018-09-02T06:54:07.854Z,16.10
2018-09-02T06:56:35.113Z,15.05
2018-09-02T06:59:02.732Z,17.05
2018-09-02T07:01:29.992Z,16.42
2018-09-02T07:03:57.283Z,14.35
2018-09-02T07:06:24.585Z,15.45
2018-09-02T07:08:51.819Z,15.03
2018-09-02T07:11:19.055Z,14.58
2018-09-02T07:13:46.300Z,14.20
2018-09-02T07:16:13.556Z,14.98
2018-09-02T07:18:40.807Z,17.55
2018-09-02T07:21:08.113Z,13.72
2018-09-02T07:23:35.399Z,13.13
2018-09-02T07:26:02.638Z,12.98
2018-09-02T07:28:29.899Z,12.30
2018-09-02T07:30:57.151Z,12.35
2018-09-02T07:33:24.444Z,14.15
2018-09-02T07:35:51.703Z,12.55
2018-09-02T07:38:18.991Z,12.10
2018-09-02T07:40:46.257Z,13.20
2018-09-02T07:43:13.503Z,13.83
2018-09-02T07:45:40.723Z,13.45
2018-09-02T07:48:08.410Z,12.53
2018-09-02T07:50:35.643Z,14.53
2018-09-02T07:53:02.932Z,11.97
2018-09-02T07:55:30.211Z,11.48
2018-09-02T07:57:57.500Z,10.65
2018-09-02T08:00:24.750Z,10.08
2018-09-02T08:02:52.061Z,9.50
2018-09-02T08:05:19.957Z,11.25
2018-09-02T08:07:47.218Z,8.70
2018-09-02T08:10:14.521Z,10.58
2018-09-02T08:12:41.910Z,8.20
2018-09-02T08:15:09.047Z,9.10
2018-09-02T08:17:36.299Z,8.40
2018-09-02T08:20:04.358Z,9.00
2018-09-02T08:22:42.660Z,8.90
2018-09-02T08:25:09.874Z,7.78
2018-09-02T08:27:37.144Z,7.28
2018-09-02T08:30:04.459Z,7.33
2018-09-02T08:32:31.722Z,7.05
2018-09-02T08:34:58.970Z,8.93
2018-09-02T08:37:26.187Z,7.72
2018-09-02T08:39:53.433Z,7.30
2018-09-02T08:42:20.657Z,7.50
2018-09-02T08:44:47.905Z,7.22
2018-09-02T08:47:20.829Z,7.70
2018-09-02T08:49:48.072Z,6.87
2018-09-02T08:52:15.309Z,7.08
2018-09-02T08:54:42.589Z,7.10
2018-09-02T08:57:10.223Z,6.80
2018-09-02T08:59:37.478Z,7.28
2018-09-02T09:02:04.898Z,6.40
2018-09-02T09:04:33.535Z,6.12
2018-09-02T09:07:00.955Z,5.97
2018-09-02T09:09:28.253Z,7.40
2018-09-02T09:11:55.505Z,5.87
2018-09-02T09:14:22.744Z,5.87
2018-09-02T09:16:50.138Z,5.87
2018-09-02T09:19:17.256Z,5.40
2018-09-02T09:21:44.580Z,5.05
2018-09-02T09:24:11.890Z,4.83
2018-09-02T09:26:39.082Z,5.45
2018-09-02T09:29:06.380Z,4.90
2018-09-02T09:31:33.646Z,5.15
2018-09-02T09:34:00.987Z,5.17
2018-09-02T09:36:28.401Z,5.25
2018-09-02T09:38:55.648Z,4.85
2018-09-02T09:41:22.904Z,4.50
2018-09-02T09:43:50.174Z,4.87
2018-09-02T09:46:17.475Z,4.78
2018-09-02T09:48:44.703Z,4.65
2018-09-02T09:51:11.991Z,4.05
2018-09-02T09:53:39.284Z,4.10
2018-09-02T09:56:06.954Z,4.03
2018-09-02T09:58:34.232Z,4.28
2018-09-02T10:01:01.468Z,5.83
2018-09-02T10:03:28.771Z,3.80
2018-09-02T10:05:56.012Z,6.12
2018-09-02T10:08:23.286Z,3.67
2018-09-02T10:10:50.607Z,4.10
2018-09-02T10:13:17.852Z,3.67
2018-09-02T10:15:45.106Z,3.55
2018-09-02T10:18:13.012Z,4.00
2018-09-02T10:20:40.383Z,3.83
2018-09-02T10:23:07.844Z,3.52
2018-09-02T10:25:35.636Z,3.70
2018-09-02T10:28:03.373Z,3.50
2018-09-02T10:30:32.110Z,3.33
2018-09-02T10:32:59.368Z,4.60
2018-09-02T10:35:26.671Z,4.37
2018-09-02T10:37:54.094Z,3.40
2018-09-02T10:40:21.363Z,3.72
2018-09-02T10:42:49.572Z,3.00
2018-09-02T10:45:16.840Z,3.33
2018-09-02T10:47:44.113Z,3.35
2018-09-02T10:50:11.725Z,3.37
2018-09-02T10:52:38.980Z,3.10
2018-09-02T10:55:06.339Z,3.27
2018-09-02T10:57:33.593Z,2.92
2018-09-02T11:00:00.855Z,3.98
2018-09-02T11:02:28.562Z,3.15
2018-09-02T11:04:55.855Z,3.05
2018-09-02T11:07:23.228Z,3.02
2018-09-02T11:09:50.535Z,3.55
2018-09-02T11:12:17.963Z,3.35
2018-09-02T11:14:45.305Z,3.55
2018-09-02T11:17:12.531Z,3.05
2018-09-02T11:19:39.762Z,3.17
2018-09-02T11:22:07.171Z,3.10
2018-09-02T11:24:34.450Z,3.58
2018-09-02T11:27:01.860Z,3.47
2018-09-02T11:29:29.203Z,3.25
2018-09-02T11:31:56.475Z,7.85
2018-09-02T11:34:23.812Z,3.92
2018-09-02T11:36:51.151Z,6.12
2018-09-02T11:39:18.354Z,8.33
2018-09-02T11:41:45.570Z,4.20
2018-09-02T11:44:12.796Z,4.62
2018-09-02T11:46:40.089Z,4.55
2018-09-02T11:49:07.655Z,4.42
2018-09-02T11:51:34.898Z,4.17
2018-09-02T11:54:02.126Z,3.77
2018-09-02T11:56:29.379Z,4.17
2018-09-02T11:58:56.796Z,3.95
2018-09-02T12:01:24.106Z,4.03
2018-09-02T12:03:51.417Z,6.72
2018-09-02T12:06:18.600Z,23.52
2018-09-02T12:08:45.807Z,54.13
2018-09-02T12:11:13.064Z,178.20
2018-09-02T12:13:40.607Z,73.07
2018-09-02T12:16:08.016Z,33.90
2018-09-02T12:18:36.881Z,14.23
2018-09-02T12:21:04.207Z,40.90
2018-09-02T12:23:31.439Z,23.02
2018-09-02T12:25:58.742Z,9.00
2018-09-02T12:28:25.994Z,6.75
2018-09-02T12:30:53.234Z,5.12
2018-09-02T12:33:20.553Z,4.40
2018-09-02T12:35:47.779Z,5.10
2018-09-02T12:38:15.037Z,5.03
2018-09-02T12:40:42.483Z,4.62
2018-09-02T12:43:09.983Z,4.75
2018-09-02T12:45:37.439Z,4.72
2018-09-02T12:48:04.885Z,6.33
2018-09-02T12:50:32.055Z,4.33
2018-09-02T12:52:59.276Z,4.12
2018-09-02T12:55:26.619Z,5.33
2018-09-02T12:57:53.952Z,4.40
2018-09-02T13:00:21.184Z,4.60
2018-09-02T13:02:48.442Z,4.67
2018-09-02T13:05:15.676Z,4.50
2018-09-02T13:07:42.913Z,4.65
2018-09-02T13:10:10.190Z,4.40
2018-09-02T13:12:37.555Z,4.62
2018-09-02T13:15:05.125Z,4.65
2018-09-02T13:17:33.891Z,4.55
2018-09-02T13:20:01.192Z,4.40
2018-09-02T13:22:28.492Z,5.20
2018-09-02T13:24:55.757Z,4.60
2018-09-02T13:27:23.037Z,4.78
2018-09-02T13:29:50.328Z,5.28
2018-09-02T13:32:17.588Z,4.40
2018-09-02T13:34:45.033Z,4.95
2018-09-02T13:37:12.464Z,4.55
2018-09-02T13:39:39.694Z,8.20
2018-09-02T13:42:06.970Z,6.62
2018-09-02T13:44:34.283Z,5.08
2018-09-02T13:47:01.634Z,5.10
2018-09-02T13:49:28.922Z,5.72
2018-09-02T13:51:56.178Z,4.22
2018-09-02T13:54:23.476Z,4.45
2018-09-02T13:56:50.731Z,6.20
2018-09-02T13:59:17.950Z,5.50
2018-09-02T14:01:45.206Z,3.85
2018-09-02T14:04:12.460Z,4.25
2018-09-02T14:06:39.692Z,4.78
2018-09-02T14:09:07.796Z,4.75
2018-09-02T14:11:35.112Z,5.28
2018-09-02T14:14:02.382Z,5.40
2018-09-02T14:16:29.621Z,5.67
2018-09-02T14:18:56.826Z,7.10
2018-09-02T14:21:24.038Z,5.78
2018-09-02T14:23:51.360Z,6.05
2018-09-02T14:26:19.399Z,6.83
2018-09-02T14:28:46.612Z,6.62
2018-09-02T14:31:13.827Z,6.50
2018-09-02T14:33:41.099Z,6.25
2018-09-02T14:36:08.367Z,6.90
2018-09-02T14:38:35.591Z,6.65
2018-09-02T14:41:02.790Z,6.70
2018-09-02T14:43:30.107Z,7.22
2018-09-02T14:45:57.362Z,7.08
2018-09-02T14:48:24.627Z,7.97
2018-09-02T14:50:51.866Z,7.95
2018-09-02T14:53:19.094Z,8.88
2018-09-02T14:55:46.361Z,8.78
2018-09-02T14:58:13.646Z,8.90
2018-09-02T15:00:40.973Z,10.25
2018-09-02T15:03:08.239Z,10.28
2018-09-02T15:05:35.596Z,9.08
2018-09-02T15:08:02.822Z,10.23
2018-09-02T15:10:30.084Z,10.25
2018-09-02T15:12:57.321Z,10.63
2018-09-02T15:15:24.531Z,11.20
2018-09-02T15:17:51.780Z,12.33
2018-09-02T15:20:19.029Z,13.05
2018-09-02T15:22:46.889Z,12.55
2018-09-02T15:25:14.118Z,12.40
2018-09-02T15:27:41.367Z,11.15
2018-09-02T15:30:09.258Z,11.18
2018-09-02T15:32:37.190Z,10.90
2018-09-02T15:35:04.505Z,10.85
2018-09-02T15:37:31.748Z,11.40
2018-09-02T15:39:59.008Z,11.10
2018-09-02T15:42:26.283Z,11.08
2018-09-02T15:44:53.566Z,10.78
2018-09-02T15:47:20.843Z,11.83
2018-09-02T15:49:48.067Z,11.33
2018-09-02T15:52:15.311Z,10.85
2018-09-02T15:54:42.550Z,12.88
2018-09-02T15:57:10.072Z,10.70
2018-09-02T15:59:37.384Z,11.30
2018-09-02T16:02:04.701Z,12.93
2018-09-02T16:04:32.034Z,13.43
2018-09-02T16:07:20.114Z,12.85
2018-09-02T16:10:01.527Z,12.95
2018-09-02T16:12:29.219Z,13.48
2018-09-02T16:14:57.221Z,12.37
2018-09-02T16:17:25.368Z,12.93
2018-09-02T16:19:53.012Z,11.93
2018-09-02T16:22:27.210Z,12.63
2018-09-02T16:24:54.809Z,16.00
2018-09-02T16:27:22.051Z,15.05
2018-09-02T16:29:49.293Z,19.50
2018-09-02T16:32:17.495Z,13.80
2018-09-02T16:34:44.861Z,14.55
2018-09-02T16:37:12.310Z,15.93
2018-09-02T16:39:39.650Z,15.95
2018-09-02T16:42:06.947Z,15.75
2018-09-02T16:44:34.444Z,16.67
2018-09-02T16:47:01.729Z,18.30
2018-09-02T16:49:28.966Z,16.97
2018-09-02T16:51:56.206Z,18.07
2018-09-02T16:54:23.503Z,18.80
2018-09-02T16:56:50.724Z,19.67
2018-09-02T16:59:17.994Z,20.10
2018-09-02T17:01:45.239Z,19.35
2018-09-02T17:04:12.589Z,18.45
2018-09-02T17:06:39.843Z,17.60
2018-09-02T17:09:08.546Z,21.05
2018-09-02T17:11:35.932Z,18.75
2018-09-02T17:14:03.136Z,19.75
2018-09-02T17:16:30.451Z,20.12
2018-09-02T17:19:02.863Z,21.75
2018-09-02T17:21:30.122Z,21.65
2018-09-02T17:23:57.375Z,23.27
2018-09-02T17:26:24.613Z,20.35
2018-09-02T17:28:51.867Z,20.32
2018-09-02T17:31:19.158Z,19.32
2018-09-02T17:34:03.381Z,20.92
2018-09-02T17:36:30.700Z,19.85
2018-09-02T17:38:58.176Z,17.92
2018-09-02T17:41:29.594Z,15.88
2018-09-02T17:43:56.883Z,14.53
2018-09-02T17:46:24.155Z,16.17
2018-09-02T17:48:51.507Z,15.45
2018-09-02T17:51:18.971Z,17.50
2018-09-02T17:53:46.319Z,14.18
2018-09-02T17:56:13.743Z,15.53
2018-09-02T17:58:41.276Z,14.45
2018-09-02T18:01:08.679Z,14.75
2018-09-02T18:03:35.944Z,16.85
2018-09-02T18:06:03.208Z,14.00
2018-09-02T18:08:30.484Z,14.80
2018-09-02T18:10:57.804Z,14.00
2018-09-02T18:13:25.075Z,14.93
2018-09-02T18:15:52.515Z,13.95
2018-09-02T18:18:19.732Z,14.47
2018-09-02T18:20:47.042Z,14.58
2018-09-02T18:23:14.398Z,13.25
2018-09-02T18:25:41.655Z,13.38
2018-09-02T18:28:11.695Z,13.53
2018-09-02T18:30:39.023Z,13.50
2018-09-02T18:33:06.356Z,13.18
2018-09-02T18:35:33.659Z,14.20
2018-09-02T18:38:00.914Z,14.58
2018-09-02T18:40:28.196Z,14.20
2018-09-02T18:42:55.472Z,15.43
2018-09-02T18:45:22.936Z,14.63
2018-09-02T18:47:50.084Z,15.25
2018-09-02T18:50:17.322Z,15.25
2018-09-02T18:52:44.554Z,16.37
2018-09-02T18:55:11.996Z,14.80
2018-09-02T18:57:42.403Z,14.85
2018-09-02T19:00:09.734Z,15.55
2018-09-02T19:02:37.077Z,15.70
2018-09-02T19:05:04.416Z,16.50
2018-09-02T19:07:31.795Z,15.35
2018-09-02T19:09:59.197Z,14.58
2018-09-02T19:12:26.423Z,15.35
2018-09-02T19:14:53.770Z,16.42
2018-09-02T19:17:21.314Z,14.98
2018-09-02T19:19:48.567Z,15.40
2018-09-02T19:22:15.815Z,15.65
2018-09-02T19:24:43.068Z,16.23
2018-09-02T19:27:10.326Z,15.63
2018-09-02T19:29:37.672Z,16.50
2018-09-02T19:32:04.962Z,17.27
2018-09-02T19:34:32.359Z,17.70
2018-09-02T19:36:59.609Z,17.82
2018-09-02T19:39:27.236Z,18.15
2018-09-02T19:41:54.467Z,19.40
2018-09-02T19:44:23.491Z,18.55
2018-09-02T19:46:51.622Z,19.42
2018-09-02T19:49:18.839Z,19.73
2018-09-02T19:51:46.088Z,20.10
2018-09-02T19:54:13.348Z,20.40
2018-09-02T19:56:40.603Z,20.52
2018-09-02T19:59:07.851Z,21.45
2018-09-02T20:01:35.116Z,20.43
2018-09-02T20:04:02.511Z,20.97
2018-09-02T20:06:29.790Z,20.37
2018-09-02T20:08:57.051Z,21.17
2018-09-02T20:11:24.270Z,23.25
2018-09-02T20:13:51.509Z,23.98
2018-09-02T20:16:18.776Z,22.62
2018-09-02T20:18:46.043Z,24.20
2018-09-02T20:21:13.331Z,21.33
2018-09-02T20:23:41.130Z,22.73
2018-09-02T20:26:08.342Z,21.50
2018-09-02T20:28:35.949Z,23.25
2018-09-02T20:31:03.903Z,21.85
2018-09-02T20:33:31.232Z,23.90
2018-09-02T20:35:58.588Z,23.50
2018-09-02T20:38:25.883Z,26.07
2018-09-02T20:40:53.143Z,23.05
2018-09-02T20:43:20.492Z,22.27
2018-09-02T20:45:47.796Z,26.27
2018-09-02T20:48:15.092Z,26.05
2018-09-02T20:50:42.422Z,27.67
2018-09-02T20:53:09.724Z,25.72
2018-09-02T20:55:37.100Z,24.18
2018-09-02T20:58:04.363Z,24.60
2018-09-02T21:00:31.652Z,24.12
2018-09-02T21:02:58.896Z,27.40
2018-09-02T21:05:26.168Z,26.37
2018-09-02T21:07:53.458Z,25.08
2018-09-02T21:10:20.747Z,25.90
2018-09-02T21:12:47.995Z,29.07
2018-09-02T21:15:15.287Z,28.05
2018-09-02T21:17:42.539Z,30.05
2018-09-02T21:20:09.835Z,27.55
2018-09-02T21:22:37.090Z,28.92
2018-09-02T21:25:04.790Z,34.63
2018-09-02T21:27:32.143Z,43.50
2018-09-02T21:29:59.388Z,27.58
2018-09-02T21:32:26.632Z,37.23
2018-09-02T21:34:53.878Z,33.42
2018-09-02T21:37:21.163Z,36.00
2018-09-02T21:39:48.478Z,32.85
2018-09-02T21:42:15.756Z,30.57
2018-09-02T21:44:43.009Z,32.33
2018-09-02T21:47:10.296Z,31.10
2018-09-02T21:49:37.559Z,30.90
2018-09-02T21:52:04.862Z,32.35
2018-09-02T21:54:32.083Z,32.40
2018-09-02T21:56:59.379Z,31.37
2018-09-02T21:59:26.635Z,33.75
2018-09-02T22:01:53.928Z,33.85
2018-09-02T22:04:21.223Z,37.20
2018-09-02T22:06:48.442Z,40.38
2018-09-02T22:09:16.814Z,34.90
2018-09-02T22:11:44.214Z,36.77
2018-09-02T22:14:12.466Z,36.95
2018-09-02T22:16:39.887Z,40.50
2018-09-02T22:19:07.331Z,39.50
2018-09-02T22:21:34.588Z,38.35
2018-09-02T22:24:01.999Z,34.55
2018-09-02T22:26:29.828Z,35.63
2018-09-02T22:28:57.120Z,34.50
2018-09-02T22:31:24.399Z,34.67
2018-09-02T22:33:51.688Z,35.00
2018-09-02T22:36:18.980Z,35.73
2018-09-02T22:38:46.230Z,35.50
2018-09-02T22:41:13.643Z,35.28
2018-09-02T22:43:40.998Z,34.08
2018-09-02T22:46:08.372Z,33.23
2018-09-02T22:48:35.662Z,35.43
2018-09-02T22:51:02.914Z,39.38
2018-09-02T22:53:30.146Z,38.70
2018-09-02T22:55:57.424Z,36.00
2018-09-02T22:58:24.694Z,34.48
2018-09-02T23:00:51.951Z,36.40
2018-09-02T23:03:19.275Z,36.95
2018-09-02T23:05:46.527Z,39.35
2018-09-02T23:08:13.799Z,35.83
2018-09-02T23:10:41.120Z,37.40
2018-09-02T23:13:08.373Z,35.98
2018-09-02T23:15:35.622Z,36.10
2018-09-02T23:18:02.880Z,36.55
2018-09-02T23:20:30.150Z,36.95
2018-09-02T23:22:57.498Z,37.60
2018-09-02T23:25:24.848Z,37.67
2018-09-02T23:27:52.099Z,39.58
2018-09-02T23:30:19.439Z,42.75
2018-09-02T23:32:46.830Z,38.42
2018-09-02T23:35:14.111Z,39.60
2018-09-02T23:37:41.486Z,37.00
2018-09-02T23:40:08.828Z,37.63
2018-09-02T23:42:36.191Z,37.60
2018-09-02T23:45:03.603Z,38.98
2018-09-02T23:47:30.858Z,36.95
2018-09-02T23:49:58.182Z,35.75
2018-09-02T23:52:25.423Z,37.85
2018-09-02T23:54:52.968Z,35.17
2018-09-02T23:57:20.260Z,35.25
2018-09-02T23:59:47.540Z,37.58
